sensor_id;sensor_type;location;lat;lon;timestamp;P1;durP1;ratioP1;P2;durP2;ratioP2
12848;SDS011;6493;50.928;7.172;2023-06-14T00:00:40;2.90;;;1.77;;
12848;SDS011;6493;50.928;7.172;2023-06-14T00:05:46;1.63;;;1.53;;
12848;SDS011;6493;50.928;7.172;2023-06-14T00:10:50;1.73;;;1.57;;
12848;SDS011;6493;50.928;7.172;2023-06-14T00:15:53;1.70;;;1.50;;
12848;SDS011;6493;50.928;7.172;2023-06-14T00:20:58;1.90;;;1.50;;
12848;SDS011;6493;50.928;7.172;2023-06-14T00:26:04;2.40;;;1.90;;
12848;SDS011;6493;50.928;7.172;2023-06-14T00:31:07;1.90;;;1.80;;
12848;SDS011;6493;50.928;7.172;2023-06-14T00:36:13;1.80;;;1.70;;
12848;SDS011;6493;50.928;7.172;2023-06-14T00:41:17;1.73;;;1.63;;
12848;SDS011;6493;50.928;7.172;2023-06-14T00:46:21;2.00;;;1.67;;
12848;SDS011;6493;50.928;7.172;2023-06-14T00:51:26;1.73;;;1.63;;
12848;SDS011;6493;50.928;7.172;2023-06-14T00:56:29;1.63;;;1.53;;
12848;SDS011;6493;50.928;7.172;2023-06-14T01:01:34;1.70;;;1.40;;
12848;SDS011;6493;50.928;7.172;2023-06-14T01:06:41;1.53;;;1.43;;
12848;SDS011;6493;50.928;7.172;2023-06-14T01:11:54;2.67;;;1.60;;
12848;SDS011;6493;50.928;7.172;2023-06-14T01:17:06;2.23;;;2.03;;
12848;SDS011;6493;50.928;7.172;2023-06-14T01:22:20;1.87;;;1.77;;
12848;SDS011;6493;50.928;7.172;2023-06-14T01:27:25;2.57;;;1.90;;
12848;SDS011;6493;50.928;7.172;2023-06-14T01:32:31;1.83;;;1.73;;
12848;SDS011;6493;50.928;7.172;2023-06-14T01:37:35;1.60;;;1.50;;
12848;SDS011;6493;50.928;7.172;2023-06-14T01:42:41;1.63;;;1.53;;
12848;SDS011;6493;50.928;7.172;2023-06-14T01:47:46;1.80;;;1.70;;
12848;SDS011;6493;50.928;7.172;2023-06-14T01:52:50;2.03;;;1.90;;
12848;SDS011;6493;50.928;7.172;2023-06-14T01:57:55;1.93;;;1.83;;
12848;SDS011;6493;50.928;7.172;2023-06-14T02:03:01;1.83;;;1.73;;
12848;SDS011;6493;50.928;7.172;2023-06-14T02:08:06;2.13;;;1.97;;
12848;SDS011;6493;50.928;7.172;2023-06-14T02:13:13;2.07;;;1.67;;
12848;SDS011;6493;50.928;7.172;2023-06-14T02:18:17;2.10;;;1.63;;
12848;SDS011;6493;50.928;7.172;2023-06-14T02:23:21;2.03;;;1.80;;
12848;SDS011;6493;50.928;7.172;2023-06-14T02:28:27;2.60;;;1.50;;
12848;SDS011;6493;50.928;7.172;2023-06-14T02:33:30;1.80;;;1.70;;
12848;SDS011;6493;50.928;7.172;2023-06-14T02:38:34;1.90;;;1.60;;
12848;SDS011;6493;50.928;7.172;2023-06-14T02:43:39;1.10;;;1.00;;
12848;SDS011;6493;50.928;7.172;2023-06-14T02:48:43;1.30;;;1.20;;
12848;SDS011;6493;50.928;7.172;2023-06-14T02:53:47;1.40;;;1.30;;
12848;SDS011;6493;50.928;7.172;2023-06-14T02:58:53;1.30;;;1.17;;
12848;SDS011;6493;50.928;7.172;2023-06-14T03:03:57;1.40;;;1.30;;
12848;SDS011;6493;50.928;7.172;2023-06-14T03:09:02;1.57;;;1.47;;
12848;SDS011;6493;50.928;7.172;2023-06-14T03:14:11;2.33;;;1.43;;
12848;SDS011;6493;50.928;7.172;2023-06-14T03:19:17;1.30;;;1.13;;
12848;SDS011;6493;50.928;7.172;2023-06-14T03:24:21;1.30;;;1.20;;
12848;SDS011;6493;50.928;7.172;2023-06-14T03:29:26;1.63;;;1.53;;
12848;SDS011;6493;50.928;7.172;2023-06-14T03:34:30;1.70;;;1.60;;
12848;SDS011;6493;50.928;7.172;2023-06-14T03:39:34;1.60;;;1.50;;
12848;SDS011;6493;50.928;7.172;2023-06-14T03:44:39;1.70;;;1.60;;
12848;SDS011;6493;50.928;7.172;2023-06-14T03:49:43;1.60;;;1.50;;
12848;SDS011;6493;50.928;7.172;2023-06-14T03:54:48;1.53;;;1.40;;
12848;SDS011;6493;50.928;7.172;2023-06-14T03:59:56;1.50;;;1.40;;
12848;SDS011;6493;50.928;7.172;2023-06-14T04:05:01;1.70;;;1.57;;
12848;SDS011;6493;50.928;7.172;2023-06-14T04:10:06;1.87;;;1.50;;
12848;SDS011;6493;50.928;7.172;2023-06-14T04:15:12;1.57;;;1.47;;
12848;SDS011;6493;50.928;7.172;2023-06-14T04:20:25;1.60;;;1.50;;
12848;SDS011;6493;50.928;7.172;2023-06-14T04:25:29;1.80;;;1.40;;
12848;SDS011;6493;50.928;7.172;2023-06-14T04:30:36;1.50;;;1.40;;
12848;SDS011;6493;50.928;7.172;2023-06-14T04:35:43;1.40;;;1.30;;
12848;SDS011;6493;50.928;7.172;2023-06-14T04:40:50;1.53;;;1.43;;
12848;SDS011;6493;50.928;7.172;2023-06-14T04:45:58;1.70;;;1.60;;
12848;SDS011;6493;50.928;7.172;2023-06-14T04:51:05;2.77;;;1.50;;
12848;SDS011;6493;50.928;7.172;2023-06-14T04:56:09;1.80;;;1.47;;
12848;SDS011;6493;50.928;7.172;2023-06-14T05:01:14;1.80;;;1.70;;
12848;SDS011;6493;50.928;7.172;2023-06-14T05:06:18;1.30;;;1.20;;
12848;SDS011;6493;50.928;7.172;2023-06-14T05:11:22;1.63;;;1.40;;
12848;SDS011;6493;50.928;7.172;2023-06-14T05:16:27;1.60;;;1.50;;
12848;SDS011;6493;50.928;7.172;2023-06-14T05:21:31;1.73;;;1.30;;
12848;SDS011;6493;50.928;7.172;2023-06-14T05:26:42;2.37;;;1.50;;
12848;SDS011;6493;50.928;7.172;2023-06-14T05:31:47;2.10;;;1.73;;
12848;SDS011;6493;50.928;7.172;2023-06-14T05:36:51;1.87;;;1.77;;
12848;SDS011;6493;50.928;7.172;2023-06-14T05:41:54;1.50;;;1.40;;
12848;SDS011;6493;50.928;7.172;2023-06-14T05:46:59;4.70;;;1.90;;
12848;SDS011;6493;50.928;7.172;2023-06-14T05:52:03;1.60;;;1.50;;
12848;SDS011;6493;50.928;7.172;2023-06-14T05:57:08;1.83;;;1.70;;
12848;SDS011;6493;50.928;7.172;2023-06-14T06:02:13;1.70;;;1.60;;
12848;SDS011;6493;50.928;7.172;2023-06-14T06:07:17;1.40;;;1.30;;
12848;SDS011;6493;50.928;7.172;2023-06-14T06:12:21;1.43;;;1.33;;
12848;SDS011;6493;50.928;7.172;2023-06-14T06:17:26;2.13;;;1.60;;
12848;SDS011;6493;50.928;7.172;2023-06-14T06:22:47;1.30;;;1.20;;
12848;SDS011;6493;50.928;7.172;2023-06-14T06:27:51;1.50;;;1.20;;
12848;SDS011;6493;50.928;7.172;2023-06-14T06:32:56;2.80;;;1.50;;
12848;SDS011;6493;50.928;7.172;2023-06-14T06:38:01;3.43;;;1.40;;
12848;SDS011;6493;50.928;7.172;2023-06-14T06:43:04;1.47;;;1.37;;
12848;SDS011;6493;50.928;7.172;2023-06-14T06:48:17;1.80;;;1.30;;
12848;SDS011;6493;50.928;7.172;2023-06-14T06:53:20;2.40;;;1.30;;
12848;SDS011;6493;50.928;7.172;2023-06-14T06:58:41;1.90;;;1.53;;
12848;SDS011;6493;50.928;7.172;2023-06-14T07:03:46;1.03;;;1.00;;
12848;SDS011;6493;50.928;7.172;2023-06-14T07:08:49;1.13;;;1.00;;
12848;SDS011;6493;50.928;7.172;2023-06-14T07:13:53;1.80;;;1.13;;
12848;SDS011;6493;50.928;7.172;2023-06-14T07:18:59;1.00;;;0.90;;
12848;SDS011;6493;50.928;7.172;2023-06-14T07:24:04;1.20;;;1.10;;
12848;SDS011;6493;50.928;7.172;2023-06-14T07:29:09;0.90;;;0.90;;
12848;SDS011;6493;50.928;7.172;2023-06-14T07:34:14;1.00;;;0.90;;
12848;SDS011;6493;50.928;7.172;2023-06-14T07:39:18;1.10;;;1.10;;
12848;SDS011;6493;50.928;7.172;2023-06-14T07:44:22;1.37;;;1.27;;
12848;SDS011;6493;50.928;7.172;2023-06-14T07:49:27;1.50;;;1.37;;
12848;SDS011;6493;50.928;7.172;2023-06-14T07:54:31;1.67;;;0.97;;
12848;SDS011;6493;50.928;7.172;2023-06-14T07:59:35;1.03;;;0.93;;
12848;SDS011;6493;50.928;7.172;2023-06-14T08:04:40;1.00;;;0.90;;
12848;SDS011;6493;50.928;7.172;2023-06-14T08:09:44;1.10;;;0.80;;
12848;SDS011;6493;50.928;7.172;2023-06-14T08:14:47;1.03;;;1.00;;
12848;SDS011;6493;50.928;7.172;2023-06-14T08:20:11;1.20;;;1.10;;
12848;SDS011;6493;50.928;7.172;2023-06-14T08:25:18;1.00;;;0.90;;
12848;SDS011;6493;50.928;7.172;2023-06-14T08:30:22;1.20;;;0.97;;
12848;SDS011;6493;50.928;7.172;2023-06-14T08:35:27;1.10;;;1.00;;
12848;SDS011;6493;50.928;7.172;2023-06-14T08:40:31;1.23;;;0.93;;
12848;SDS011;6493;50.928;7.172;2023-06-14T08:45:39;1.37;;;1.03;;
12848;SDS011;6493;50.928;7.172;2023-06-14T08:50:44;1.00;;;0.90;;
12848;SDS011;6493;50.928;7.172;2023-06-14T08:55:50;1.27;;;0.90;;
12848;SDS011;6493;50.928;7.172;2023-06-14T09:00:55;0.90;;;0.80;;
12848;SDS011;6493;50.928;7.172;2023-06-14T09:06:00;0.70;;;0.70;;
12848;SDS011;6493;50.928;7.172;2023-06-14T09:11:05;0.60;;;0.60;;
12848;SDS011;6493;50.928;7.172;2023-06-14T09:16:09;1.70;;;0.87;;
12848;SDS011;6493;50.928;7.172;2023-06-14T09:21:16;0.77;;;0.77;;
12848;SDS011;6493;50.928;7.172;2023-06-14T09:26:20;0.97;;;0.70;;
12848;SDS011;6493;50.928;7.172;2023-06-14T09:31:25;0.60;;;0.60;;
12848;SDS011;6493;50.928;7.172;2023-06-14T09:36:34;0.50;;;0.50;;
12848;SDS011;6493;50.928;7.172;2023-06-14T09:41:40;1.10;;;0.80;;
12848;SDS011;6493;50.928;7.172;2023-06-14T09:46:45;0.70;;;0.70;;
12848;SDS011;6493;50.928;7.172;2023-06-14T09:51:51;0.73;;;0.63;;
12848;SDS011;6493;50.928;7.172;2023-06-14T09:56:57;1.37;;;0.77;;
12848;SDS011;6493;50.928;7.172;2023-06-14T10:02:04;1.40;;;1.07;;
12848;SDS011;6493;50.928;7.172;2023-06-14T10:07:14;1.00;;;0.90;;
12848;SDS011;6493;50.928;7.172;2023-06-14T10:12:19;0.77;;;0.77;;
12848;SDS011;6493;50.928;7.172;2023-06-14T10:17:26;0.70;;;0.70;;
12848;SDS011;6493;50.928;7.172;2023-06-14T10:22:39;1.23;;;0.80;;
12848;SDS011;6493;50.928;7.172;2023-06-14T10:27:48;0.60;;;0.60;;
12848;SDS011;6493;50.928;7.172;2023-06-14T10:33:05;1.90;;;0.87;;
12848;SDS011;6493;50.928;7.172;2023-06-14T10:38:11;0.80;;;0.80;;
12848;SDS011;6493;50.928;7.172;2023-06-14T10:43:22;0.70;;;0.70;;
12848;SDS011;6493;50.928;7.172;2023-06-14T10:48:29;0.70;;;0.70;;
12848;SDS011;6493;50.928;7.172;2023-06-14T10:53:40;0.90;;;0.90;;
12848;SDS011;6493;50.928;7.172;2023-06-14T10:58:45;1.90;;;0.90;;
12848;SDS011;6493;50.928;7.172;2023-06-14T11:03:50;0.80;;;0.80;;
12848;SDS011;6493;50.928;7.172;2023-06-14T11:14:23;0.90;;;0.70;;
12848;SDS011;6493;50.928;7.172;2023-06-14T11:19:26;2.20;;;1.00;;
12848;SDS011;6493;50.928;7.172;2023-06-14T11:24:33;0.97;;;0.80;;
12848;SDS011;6493;50.928;7.172;2023-06-14T11:29:37;0.87;;;0.87;;
12848;SDS011;6493;50.928;7.172;2023-06-14T11:34:41;0.60;;;0.60;;
12848;SDS011;6493;50.928;7.172;2023-06-14T11:39:50;0.60;;;0.60;;
12848;SDS011;6493;50.928;7.172;2023-06-14T11:44:53;0.83;;;0.77;;
12848;SDS011;6493;50.928;7.172;2023-06-14T11:50:17;0.70;;;0.67;;
12848;SDS011;6493;50.928;7.172;2023-06-14T11:55:23;0.90;;;0.80;;
12848;SDS011;6493;50.928;7.172;2023-06-14T12:00:28;0.87;;;0.80;;
12848;SDS011;6493;50.928;7.172;2023-06-14T12:05:32;1.13;;;0.60;;
12848;SDS011;6493;50.928;7.172;2023-06-14T12:10:41;0.50;;;0.50;;
12848;SDS011;6493;50.928;7.172;2023-06-14T12:15:53;1.40;;;0.80;;
12848;SDS011;6493;50.928;7.172;2023-06-14T12:20:58;0.60;;;0.60;;
12848;SDS011;6493;50.928;7.172;2023-06-14T12:26:06;0.70;;;0.70;;
12848;SDS011;6493;50.928;7.172;2023-06-14T12:31:14;0.70;;;0.70;;
12848;SDS011;6493;50.928;7.172;2023-06-14T12:36:19;2.20;;;0.70;;
12848;SDS011;6493;50.928;7.172;2023-06-14T12:41:24;0.93;;;0.80;;
12848;SDS011;6493;50.928;7.172;2023-06-14T12:46:29;1.23;;;0.90;;
12848;SDS011;6493;50.928;7.172;2023-06-14T12:51:34;0.70;;;0.70;;
12848;SDS011;6493;50.928;7.172;2023-06-14T12:56:39;0.87;;;0.83;;
12848;SDS011;6493;50.928;7.172;2023-06-14T13:01:43;1.13;;;0.90;;
12848;SDS011;6493;50.928;7.172;2023-06-14T13:06:49;0.70;;;0.70;;
12848;SDS011;6493;50.928;7.172;2023-06-14T13:11:54;0.90;;;0.90;;
12848;SDS011;6493;50.928;7.172;2023-06-14T13:16:58;2.10;;;1.00;;
12848;SDS011;6493;50.928;7.172;2023-06-14T13:22:02;1.20;;;1.10;;
12848;SDS011;6493;50.928;7.172;2023-06-14T13:27:07;1.53;;;1.27;;
12848;SDS011;6493;50.928;7.172;2023-06-14T13:32:12;1.13;;;0.90;;
12848;SDS011;6493;50.928;7.172;2023-06-14T13:37:16;1.07;;;0.97;;
12848;SDS011;6493;50.928;7.172;2023-06-14T13:42:21;0.80;;;0.80;;
12848;SDS011;6493;50.928;7.172;2023-06-14T13:47:24;1.20;;;1.10;;
12848;SDS011;6493;50.928;7.172;2023-06-14T13:52:29;1.73;;;0.90;;
12848;SDS011;6493;50.928;7.172;2023-06-14T13:57:35;0.80;;;0.77;;
12848;SDS011;6493;50.928;7.172;2023-06-14T14:02:44;1.17;;;1.07;;
12848;SDS011;6493;50.928;7.172;2023-06-14T14:07:49;1.47;;;1.00;;
12848;SDS011;6493;50.928;7.172;2023-06-14T14:12:55;1.17;;;1.03;;
12848;SDS011;6493;50.928;7.172;2023-06-14T14:17:59;0.90;;;0.90;;
12848;SDS011;6493;50.928;7.172;2023-06-14T14:23:02;0.80;;;0.80;;
12848;SDS011;6493;50.928;7.172;2023-06-14T14:28:08;0.70;;;0.70;;
12848;SDS011;6493;50.928;7.172;2023-06-14T14:33:13;0.80;;;0.77;;
12848;SDS011;6493;50.928;7.172;2023-06-14T14:38:18;1.10;;;1.00;;
12848;SDS011;6493;50.928;7.172;2023-06-14T14:43:25;0.80;;;0.80;;
12848;SDS011;6493;50.928;7.172;2023-06-14T14:48:28;0.90;;;0.90;;
12848;SDS011;6493;50.928;7.172;2023-06-14T14:53:32;0.77;;;0.77;;
12848;SDS011;6493;50.928;7.172;2023-06-14T14:58:37;0.97;;;0.87;;
12848;SDS011;6493;50.928;7.172;2023-06-14T15:03:40;0.90;;;0.90;;
12848;SDS011;6493;50.928;7.172;2023-06-14T15:08:50;0.83;;;0.83;;
12848;SDS011;6493;50.928;7.172;2023-06-14T15:13:56;1.33;;;0.70;;
12848;SDS011;6493;50.928;7.172;2023-06-14T15:18:59;0.83;;;0.80;;
12848;SDS011;6493;50.928;7.172;2023-06-14T15:24:03;0.80;;;0.70;;
12848;SDS011;6493;50.928;7.172;2023-06-14T15:29:09;1.03;;;0.83;;
12848;SDS011;6493;50.928;7.172;2023-06-14T15:34:12;1.70;;;0.97;;
12848;SDS011;6493;50.928;7.172;2023-06-14T15:39:16;1.80;;;0.83;;
12848;SDS011;6493;50.928;7.172;2023-06-14T15:44:21;0.80;;;0.80;;
12848;SDS011;6493;50.928;7.172;2023-06-14T15:49:24;0.63;;;0.63;;
12848;SDS011;6493;50.928;7.172;2023-06-14T15:54:28;0.90;;;0.90;;
12848;SDS011;6493;50.928;7.172;2023-06-14T15:59:33;0.70;;;0.70;;
12848;SDS011;6493;50.928;7.172;2023-06-14T16:04:37;1.73;;;0.77;;
12848;SDS011;6493;50.928;7.172;2023-06-14T16:09:40;1.30;;;0.87;;
12848;SDS011;6493;50.928;7.172;2023-06-14T16:14:45;1.67;;;1.10;;
12848;SDS011;6493;50.928;7.172;2023-06-14T16:19:49;0.77;;;0.60;;
12848;SDS011;6493;50.928;7.172;2023-06-14T16:24:53;0.73;;;0.60;;
12848;SDS011;6493;50.928;7.172;2023-06-14T16:29:58;0.90;;;0.90;;
12848;SDS011;6493;50.928;7.172;2023-06-14T16:35:01;1.23;;;1.10;;
12848;SDS011;6493;50.928;7.172;2023-06-14T16:40:06;0.70;;;0.70;;
12848;SDS011;6493;50.928;7.172;2023-06-14T16:45:12;0.70;;;0.70;;
12848;SDS011;6493;50.928;7.172;2023-06-14T16:50:15;1.47;;;1.00;;
12848;SDS011;6493;50.928;7.172;2023-06-14T16:55:19;1.37;;;1.00;;
12848;SDS011;6493;50.928;7.172;2023-06-14T17:00:24;1.80;;;1.20;;
12848;SDS011;6493;50.928;7.172;2023-06-14T17:05:28;2.13;;;1.00;;
12848;SDS011;6493;50.928;7.172;2023-06-14T17:10:32;0.80;;;0.80;;
12848;SDS011;6493;50.928;7.172;2023-06-14T17:15:37;0.77;;;0.77;;
12848;SDS011;6493;50.928;7.172;2023-06-14T17:20:40;1.03;;;0.93;;
12848;SDS011;6493;50.928;7.172;2023-06-14T17:25:44;1.40;;;0.80;;
12848;SDS011;6493;50.928;7.172;2023-06-14T17:30:49;1.43;;;1.33;;
12848;SDS011;6493;50.928;7.172;2023-06-14T17:35:53;1.10;;;1.10;;
12848;SDS011;6493;50.928;7.172;2023-06-14T17:40:56;0.90;;;0.80;;
12848;SDS011;6493;50.928;7.172;2023-06-14T17:46:03;1.30;;;1.17;;
12848;SDS011;6493;50.928;7.172;2023-06-14T17:51:08;1.63;;;1.20;;
12848;SDS011;6493;50.928;7.172;2023-06-14T17:56:11;0.90;;;0.90;;
12848;SDS011;6493;50.928;7.172;2023-06-14T18:01:16;0.90;;;0.90;;
12848;SDS011;6493;50.928;7.172;2023-06-14T18:06:22;0.87;;;0.87;;
12848;SDS011;6493;50.928;7.172;2023-06-14T18:11:26;1.50;;;0.90;;
12848;SDS011;6493;50.928;7.172;2023-06-14T18:16:34;0.80;;;0.80;;
12848;SDS011;6493;50.928;7.172;2023-06-14T18:21:37;0.90;;;0.80;;
12848;SDS011;6493;50.928;7.172;2023-06-14T18:26:41;0.73;;;0.73;;
12848;SDS011;6493;50.928;7.172;2023-06-14T18:31:46;0.70;;;0.50;;
12848;SDS011;6493;50.928;7.172;2023-06-14T18:36:50;0.50;;;0.50;;
12848;SDS011;6493;50.928;7.172;2023-06-14T18:41:55;0.50;;;0.50;;
12848;SDS011;6493;50.928;7.172;2023-06-14T18:47:03;0.70;;;0.70;;
12848;SDS011;6493;50.928;7.172;2023-06-14T18:52:08;0.60;;;0.60;;
12848;SDS011;6493;50.928;7.172;2023-06-14T18:57:12;0.50;;;0.50;;
12848;SDS011;6493;50.928;7.172;2023-06-14T19:02:17;0.53;;;0.53;;
12848;SDS011;6493;50.928;7.172;2023-06-14T19:07:20;0.70;;;0.70;;
12848;SDS011;6493;50.928;7.172;2023-06-14T19:12:24;0.53;;;0.53;;
12848;SDS011;6493;50.928;7.172;2023-06-14T19:17:29;0.60;;;0.60;;
12848;SDS011;6493;50.928;7.172;2023-06-14T19:22:33;0.70;;;0.60;;
12848;SDS011;6493;50.928;7.172;2023-06-14T19:27:37;0.50;;;0.50;;
12848;SDS011;6493;50.928;7.172;2023-06-14T19:32:42;1.10;;;1.00;;
12848;SDS011;6493;50.928;7.172;2023-06-14T19:37:46;0.80;;;0.80;;
12848;SDS011;6493;50.928;7.172;2023-06-14T19:42:50;0.70;;;0.70;;
12848;SDS011;6493;50.928;7.172;2023-06-14T19:47:55;0.70;;;0.70;;
12848;SDS011;6493;50.928;7.172;2023-06-14T19:53:19;0.90;;;0.90;;
12848;SDS011;6493;50.928;7.172;2023-06-14T19:58:23;1.10;;;1.00;;
12848;SDS011;6493;50.928;7.172;2023-06-14T20:03:28;0.90;;;0.90;;
12848;SDS011;6493;50.928;7.172;2023-06-14T20:08:31;0.77;;;0.77;;
12848;SDS011;6493;50.928;7.172;2023-06-14T20:13:35;0.70;;;0.70;;
12848;SDS011;6493;50.928;7.172;2023-06-14T20:18:40;0.60;;;0.60;;
12848;SDS011;6493;50.928;7.172;2023-06-14T20:23:43;0.90;;;0.80;;
12848;SDS011;6493;50.928;7.172;2023-06-14T20:28:47;0.60;;;0.60;;
12848;SDS011;6493;50.928;7.172;2023-06-14T20:33:52;0.60;;;0.60;;
12848;SDS011;6493;50.928;7.172;2023-06-14T20:38:57;0.70;;;0.70;;
12848;SDS011;6493;50.928;7.172;2023-06-14T20:44:01;0.70;;;0.70;;
12848;SDS011;6493;50.928;7.172;2023-06-14T20:49:06;0.60;;;0.60;;
12848;SDS011;6493;50.928;7.172;2023-06-14T20:54:10;0.90;;;0.80;;
12848;SDS011;6493;50.928;7.172;2023-06-14T20:59:13;0.73;;;0.60;;
12848;SDS011;6493;50.928;7.172;2023-06-14T21:04:19;0.50;;;0.50;;
12848;SDS011;6493;50.928;7.172;2023-06-14T21:09:23;0.60;;;0.60;;
12848;SDS011;6493;50.928;7.172;2023-06-14T21:14:27;0.50;;;0.50;;
12848;SDS011;6493;50.928;7.172;2023-06-14T21:19:31;0.53;;;0.53;;
12848;SDS011;6493;50.928;7.172;2023-06-14T21:24:35;0.50;;;0.50;;
12848;SDS011;6493;50.928;7.172;2023-06-14T21:29:39;0.97;;;0.50;;
12848;SDS011;6493;50.928;7.172;2023-06-14T21:34:44;0.53;;;0.50;;
12848;SDS011;6493;50.928;7.172;2023-06-14T21:39:48;0.60;;;0.60;;
12848;SDS011;6493;50.928;7.172;2023-06-14T21:44:51;0.43;;;0.43;;
12848;SDS011;6493;50.928;7.172;2023-06-14T21:49:58;0.40;;;0.40;;
12848;SDS011;6493;50.928;7.172;2023-06-14T21:55:02;0.60;;;0.60;;
12848;SDS011;6493;50.928;7.172;2023-06-14T22:00:06;0.50;;;0.50;;
12848;SDS011;6493;50.928;7.172;2023-06-14T22:05:14;0.57;;;0.57;;
12848;SDS011;6493;50.928;7.172;2023-06-14T22:10:18;0.77;;;0.60;;
12848;SDS011;6493;50.928;7.172;2023-06-14T22:15:22;0.40;;;0.40;;
12848;SDS011;6493;50.928;7.172;2023-06-14T22:20:27;2.50;;;0.67;;
12848;SDS011;6493;50.928;7.172;2023-06-14T22:25:34;0.83;;;0.60;;
12848;SDS011;6493;50.928;7.172;2023-06-14T22:30:38;0.50;;;0.50;;
12848;SDS011;6493;50.928;7.172;2023-06-14T22:35:46;0.87;;;0.40;;
12848;SDS011;6493;50.928;7.172;2023-06-14T22:40:49;0.50;;;0.50;;
12848;SDS011;6493;50.928;7.172;2023-06-14T22:45:54;0.60;;;0.60;;
12848;SDS011;6493;50.928;7.172;2023-06-14T22:51:00;0.50;;;0.50;;
12848;SDS011;6493;50.928;7.172;2023-06-14T22:56:05;0.60;;;0.60;;
12848;SDS011;6493;50.928;7.172;2023-06-14T23:01:11;0.50;;;0.50;;
12848;SDS011;6493;50.928;7.172;2023-06-14T23:06:18;0.70;;;0.70;;
12848;SDS011;6493;50.928;7.172;2023-06-14T23:11:26;0.87;;;0.60;;
12848;SDS011;6493;50.928;7.172;2023-06-14T23:16:30;0.50;;;0.50;;
12848;SDS011;6493;50.928;7.172;2023-06-14T23:21:37;1.07;;;0.80;;
12848;SDS011;6493;50.928;7.172;2023-06-14T23:26:41;0.83;;;0.60;;
12848;SDS011;6493;50.928;7.172;2023-06-14T23:31:47;0.73;;;0.60;;
12848;SDS011;6493;50.928;7.172;2023-06-14T23:36:52;0.50;;;0.50;;
12848;SDS011;6493;50.928;7.172;2023-06-14T23:41:56;0.67;;;0.67;;
12848;SDS011;6493;50.928;7.172;2023-06-14T23:47:00;0.60;;;0.60;;
12848;SDS011;6493;50.928;7.172;2023-06-14T23:52:09;0.53;;;0.53;;
12848;SDS011;6493;50.928;7.172;2023-06-14T23:57:12;0.60;;;0.60;;
